Glory Ocean — 9VDE7 — position and weather

sailwx.info

Track history (hours):
 
Tides and Currents Weather Stations Pressure Air Temp Water Temp Dewpoint Dewpoint Depression Visibility Wind Speed Wind Dir Waves Ship Positions

Glory Ocean

Last reported at 2015-Aug-12 19:27 UTC. Time now 2015-Sep-02 12:56 UTC.
Position N 38°25' E 013°41'.
Warning: this ship's position is 20 days out of date.

Length 139 m; draft 5.4 m.

Type: Ship. MMSI: 564700000.

Date/timePositionNaut miles runAvg speedWind from/ knotsBaromVisibWave heightAir tempDewpointWater temp
2015-Aug-12 19:27N 38°25' E 013°41'1112.0
2015-Aug-12 18:32N 38°26' E 013°27'1412.2
2015-Aug-12 17:24N 38°25' E 013°09'2412.1
2015-Aug-12 15:27N 38°21' E 012°39'1111.8
2015-Aug-12 14:31N 38°19' E 012°26'51912.4
2015-Aug-10 20:32N 36°56' E 001°38'1212.1
2015-Aug-10 19:33N 36°54' E 001°24'1212.4
2015-Aug-10 18:33N 36°52' E 001°08'1312.9
2015-Aug-10 17:34N 36°50' E 000°52'1312.9
2015-Aug-10 16:33N 36°48' E 000°36'1313.1
2015-Aug-10 15:33N 36°46' E 000°20'1313.3
2015-Aug-10 14:33N 36°43' E 000°04'1313.5
2015-Aug-10 13:34N 36°41' W 000°12'1312.9
2015-Aug-10 12:33N 36°38' W 000°28'1312.6
2015-Aug-10 11:33N 36°36' W 000°44'1312.8
2015-Aug-10 10:34N 36°33' W 000°59'1612.4
2015-Aug-10 09:16N 36°30' W 001°19'25712.4
2015-Aug-09 12:33N 35°40' W 006°31'16811.9
2015-Aug-08 22:29N 33°52' W 009°06'1010.7
2015-Aug-08 21:33N 33°46' W 009°16'1110.4
2015-Aug-08 20:31N 33°40' W 009°27'1010.4
2015-Aug-08 19:33N 33°34' W 009°37'10 9.8
2015-Aug-08 18:33N 33°28' W 009°46'9 9.4
2015-Aug-08 17:33N 33°20' W 009°51'9 9.4
2015-Aug-08 16:33N 33°11' W 009°57'13 9.6
2015-Aug-08 15:09N 33°02' W 010°08'6 9.4
2015-Aug-08 14:32N 32°57' W 010°12'9 9.5
2015-Aug-08 13:32N 32°50' W 010°19'9 9.4
2015-Aug-08 12:33N 32°43' W 010°26'10 9.8
2015-Aug-08 11:30N 32°36' W 010°35'  
Track history (hours):
 
Tides and Currents Weather Stations Pressure Air Temp Water Temp Dewpoint Dewpoint Depression Visibility Wind Speed Wind Dir Waves Ship Positions

Glory Ocean

Last reported at 2015-Aug-12 19:27 UTC. Time now 2015-Sep-02 12:56 UTC.
Position N 38°25' E 013°41'.
Warning: this ship's position is 20 days out of date.

Length 139 m; draft 5.4 m.

Type: Ship. MMSI: 564700000.

Date/timePositionNaut miles runAvg speedWind from/ knotsBaromVisibWave heightAir tempDewpointWater temp
2015-Aug-12 19:27N 38°25' E 013°41'1112.0
2015-Aug-12 18:32N 38°26' E 013°27'1412.2
2015-Aug-12 17:24N 38°25' E 013°09'2412.1
2015-Aug-12 15:27N 38°21' E 012°39'1111.8
2015-Aug-12 14:31N 38°19' E 012°26'51912.4
2015-Aug-10 20:32N 36°56' E 001°38'1212.1
2015-Aug-10 19:33N 36°54' E 001°24'1212.4
2015-Aug-10 18:33N 36°52' E 001°08'1312.9
2015-Aug-10 17:34N 36°50' E 000°52'1312.9
2015-Aug-10 16:33N 36°48' E 000°36'1313.1
2015-Aug-10 15:33N 36°46' E 000°20'1313.3
2015-Aug-10 14:33N 36°43' E 000°04'1313.5
2015-Aug-10 13:34N 36°41' W 000°12'1312.9
2015-Aug-10 12:33N 36°38' W 000°28'1312.6
2015-Aug-10 11:33N 36°36' W 000°44'1312.8
2015-Aug-10 10:34N 36°33' W 000°59'1612.4
2015-Aug-10 09:16N 36°30' W 001°19'25712.4
2015-Aug-09 12:33N 35°40' W 006°31'16811.9
2015-Aug-08 22:29N 33°52' W 009°06'1010.7
2015-Aug-08 21:33N 33°46' W 009°16'1110.4
2015-Aug-08 20:31N 33°40' W 009°27'1010.4
2015-Aug-08 19:33N 33°34' W 009°37'10 9.8
2015-Aug-08 18:33N 33°28' W 009°46'9 9.4
2015-Aug-08 17:33N 33°20' W 009°51'9 9.4
2015-Aug-08 16:33N 33°11' W 009°57'13 9.6
2015-Aug-08 15:09N 33°02' W 010°08'6 9.4
2015-Aug-08 14:32N 32°57' W 010°12'9 9.5
2015-Aug-08 13:32N 32°50' W 010°19'9 9.4
2015-Aug-08 12:33N 32°43' W 010°26'10 9.8
2015-Aug-08 11:30N 32°36' W 010°35'  

Dump ship's entire track history